Time;durP1;ratioP1;P1;durP2;ratioP2;P2;SDS_P1;SDS_P2;PMS_P1;PMS_P2;Temp;Humidity;BMP_temperature;BMP_pressure;BME280_temperature;BME280_humidity;BME280_pressure;Samples;Min_cycle;Max_cycle;Signal;HPM_P1;HPM_P2
2023/09/04 00:01:45;;;;;;;1.08;1.08;;;;;;;;;;4998687;28;20025;-22
2023/09/04 00:04:12;;;;;;;1.05;1.05;;;;;;;;;;4997206;28;20054;-22
2023/09/04 00:06:38;;;;;;;1.17;1.15;;;;;;;;;;4998639;28;20365;-21
2023/09/04 00:09:04;;;;;;;1.08;1.08;;;;;;;;;;4998831;28;20022;-21
2023/09/04 00:11:31;;;;;;;1.30;1.30;;;;;;;;;;4998809;28;20029;-22
2023/09/04 00:13:57;;;;;;;1.40;1.00;;;;;;;;;;4998353;28;20030;-22
2023/09/04 00:16:23;;;;;;;1.20;1.20;;;;;;;;;;4998747;28;20411;-22
2023/09/04 00:18:49;;;;;;;1.20;1.20;;;;;;;;;;4998385;28;20472;-21
2023/09/04 00:21:15;;;;;;;1.08;1.08;;;;;;;;;;4998674;28;20092;-22
2023/09/04 00:23:41;;;;;;;0.90;0.90;;;;;;;;;;4998479;28;20030;-23
2023/09/04 00:26:08;;;;;;;1.10;1.10;;;;;;;;;;4998297;28;20023;-22
2023/09/04 00:28:34;;;;;;;1.42;1.42;;;;;;;;;;4998482;28;20080;-22
2023/09/04 00:31:00;;;;;;;0.90;0.90;;;;;;;;;;4997198;28;20405;-21
2023/09/04 00:33:26;;;;;;;1.00;1.00;;;;;;;;;;4998062;28;20022;-21
2023/09/04 00:35:52;;;;;;;1.30;1.30;;;;;;;;;;4998325;28;20065;-21
2023/09/04 00:38:18;;;;;;;1.00;1.00;;;;;;;;;;4998064;28;20057;-21
2023/09/04 00:40:45;;;;;;;0.93;0.93;;;;;;;;;;4998008;28;20057;-21
2023/09/04 00:43:11;;;;;;;0.90;0.90;;;;;;;;;;4996865;28;20037;-21
2023/09/04 00:45:37;;;;;;;0.80;0.80;;;;;;;;;;4996602;28;20026;-21
2023/09/04 00:48:06;;;;;;;1.20;1.10;;;;;;;;;;4997836;28;20075;-22
2023/09/04 00:50:32;;;;;;;1.13;1.13;;;;;;;;;;4997809;28;20018;-21
2023/09/04 00:53:00;;;;;;;0.93;0.93;;;;;;;;;;4997625;28;20026;-22
2023/09/04 00:55:26;;;;;;;0.90;0.90;;;;;;;;;;4997725;28;20362;-22
2023/09/04 00:57:52;;;;;;;0.95;0.95;;;;;;;;;;4997928;28;20022;-22
2023/09/04 01:00:22;;;;;;;1.10;1.08;;;;;;;;;;4997909;28;20034;-22
2023/09/04 01:02:48;;;;;;;1.00;1.00;;;;;;;;;;4997705;28;20045;-23
2023/09/04 01:05:14;;;;;;;1.00;1.00;;;;;;;;;;4997447;28;20125;-21
2023/09/04 01:07:41;;;;;;;1.15;1.15;;;;;;;;;;4997496;28;20354;-22
2023/09/04 01:10:09;;;;;;;0.88;0.88;;;;;;;;;;4998542;28;20022;-22
2023/09/04 01:12:41;;;;;;;0.90;0.90;;;;;;;;;;4997370;28;20108;-23
2023/09/04 01:15:09;;;;;;;1.00;1.00;;;;;;;;;;4997682;28;20034;-23
2023/09/04 01:17:35;;;;;;;1.00;1.00;;;;;;;;;;4997345;28;20034;-22
2023/09/04 01:20:13;;;;;;;1.10;1.10;;;;;;;;;;4997570;28;20031;-22
2023/09/04 01:22:39;;;;;;;1.10;1.10;;;;;;;;;;4997147;28;20027;-22
2023/09/04 01:25:05;;;;;;;1.20;1.20;;;;;;;;;;4997447;28;20388;-21
2023/09/04 01:27:39;;;;;;;0.93;0.93;;;;;;;;;;4997174;28;20023;-22
2023/09/04 01:30:07;;;;;;;1.00;1.00;;;;;;;;;;4997440;28;20026;-21
2023/09/04 01:32:36;;;;;;;0.80;0.80;;;;;;;;;;4997309;28;20358;-22
2023/09/04 01:35:04;;;;;;;0.98;0.98;;;;;;;;;;4997256;28;20382;-21
2023/09/04 01:37:31;;;;;;;1.10;1.10;;;;;;;;;;4996958;28;20049;-22
2023/09/04 01:39:57;;;;;;;0.77;0.77;;;;;;;;;;4996947;28;20105;-22
2023/09/04 01:42:23;;;;;;;1.23;1.23;;;;;;;;;;4996773;28;20026;-21
2023/09/04 01:44:49;;;;;;;1.23;1.23;;;;;;;;;;4997071;28;20442;-21
2023/09/04 01:47:15;;;;;;;1.08;1.08;;;;;;;;;;4996758;28;20030;-22
2023/09/04 01:49:42;;;;;;;0.90;0.90;;;;;;;;;;4996756;28;20365;-22
2023/09/04 01:52:09;;;;;;;0.93;0.93;;;;;;;;;;4996582;28;20034;-21
2023/09/04 01:54:36;;;;;;;0.80;0.80;;;;;;;;;;4996942;28;20105;-21
2023/09/04 01:57:02;;;;;;;0.90;0.90;;;;;;;;;;4996204;28;20434;-24
2023/09/04 01:59:29;;;;;;;0.93;0.93;;;;;;;;;;4996533;28;20041;-22
2023/09/04 02:01:55;;;;;;;1.00;1.00;;;;;;;;;;4996359;28;20046;-21
2023/09/04 02:04:21;;;;;;;1.10;1.10;;;;;;;;;;4996390;28;20074;-22
2023/09/04 02:06:47;;;;;;;1.13;1.13;;;;;;;;;;4996386;28;20057;-22
2023/09/04 02:09:14;;;;;;;0.90;0.90;;;;;;;;;;4996388;28;20065;-23
2023/09/04 02:11:40;;;;;;;0.90;0.90;;;;;;;;;;4996316;28;20454;-22
2023/09/04 02:14:06;;;;;;;0.80;0.80;;;;;;;;;;4996198;28;20030;-22
2023/09/04 02:16:32;;;;;;;0.90;0.90;;;;;;;;;;4996266;28;20405;-22
2023/09/04 02:18:58;;;;;;;0.90;0.90;;;;;;;;;;4996436;28;20462;-23
2023/09/04 02:21:25;;;;;;;0.80;0.80;;;;;;;;;;4996159;28;20091;-24
2023/09/04 02:23:51;;;;;;;0.93;0.93;;;;;;;;;;4995920;28;20449;-22
2023/09/04 02:26:17;;;;;;;1.05;1.05;;;;;;;;;;4995983;28;20116;-21
2023/09/04 02:28:43;;;;;;;1.17;1.17;;;;;;;;;;4996259;28;20461;-22
2023/09/04 02:31:11;;;;;;;0.98;0.98;;;;;;;;;;4996213;28;20034;-23
2023/09/04 02:33:37;;;;;;;0.90;0.90;;;;;;;;;;4995819;28;20026;-22
2023/09/04 02:36:03;;;;;;;1.10;1.10;;;;;;;;;;4996120;28;20026;-22
2023/09/04 02:38:30;;;;;;;0.90;0.90;;;;;;;;;;4996103;28;20466;-21
2023/09/04 02:40:56;;;;;;;0.98;0.98;;;;;;;;;;4995763;28;20041;-22
2023/09/04 02:43:22;;;;;;;0.88;0.88;;;;;;;;;;4995632;28;20030;-21
2023/09/04 02:45:48;;;;;;;0.90;0.90;;;;;;;;;;4995678;28;20335;-21
2023/09/04 02:48:15;;;;;;;0.77;0.77;;;;;;;;;;4995655;28;20469;-25
2023/09/04 02:50:41;;;;;;;0.90;0.90;;;;;;;;;;4995912;28;20129;-22
2023/09/04 02:53:07;;;;;;;1.00;1.00;;;;;;;;;;4995757;28;20354;-22
2023/09/04 02:55:33;;;;;;;1.30;1.30;;;;;;;;;;4995581;28;20027;-21
2023/09/04 02:57:59;;;;;;;0.85;0.85;;;;;;;;;;4995771;28;20026;-22
2023/09/04 03:00:25;;;;;;;1.00;1.00;;;;;;;;;;4995753;28;20044;-22
2023/09/04 03:02:51;;;;;;;0.90;0.90;;;;;;;;;;4994354;28;20023;-21
2023/09/04 03:05:18;;;;;;;0.85;0.85;;;;;;;;;;4995207;28;20048;-22
2023/09/04 03:07:44;;;;;;;1.08;1.08;;;;;;;;;;4994677;28;20098;-22
2023/09/04 03:10:10;;;;;;;0.88;0.88;;;;;;;;;;4995392;28;20033;-22
2023/09/04 03:12:36;;;;;;;0.90;0.90;;;;;;;;;;4995533;28;20026;-22
2023/09/04 03:15:07;;;;;;;1.10;1.10;;;;;;;;;;4995342;28;20066;-22
2023/09/04 03:17:34;;;;;;;0.97;0.97;;;;;;;;;;4995346;28;20037;-21
2023/09/04 03:20:02;;;;;;;0.70;0.70;;;;;;;;;;4995294;28;20026;-22
2023/09/04 03:22:28;;;;;;;1.02;1.02;;;;;;;;;;4995146;28;20026;-22
2023/09/04 03:24:54;;;;;;;0.75;0.75;;;;;;;;;;4995217;28;20041;-22
2023/09/04 03:27:21;;;;;;;0.90;0.90;;;;;;;;;;4995133;28;20461;-23
2023/09/04 03:29:47;;;;;;;0.80;0.80;;;;;;;;;;4995334;28;20113;-22
2023/09/04 03:32:13;;;;;;;0.80;0.80;;;;;;;;;;4995082;28;20458;-22
2023/09/04 03:34:39;;;;;;;0.90;0.90;;;;;;;;;;4995613;28;20458;-22
2023/09/04 03:37:06;;;;;;;0.90;0.90;;;;;;;;;;4995085;28;20404;-22
2023/09/04 03:39:36;;;;;;;0.70;0.70;;;;;;;;;;4995368;28;20026;-22
2023/09/04 03:42:03;;;;;;;0.90;0.90;;;;;;;;;;4995049;28;20351;-21
2023/09/04 03:44:29;;;;;;;1.20;1.10;;;;;;;;;;4994894;28;20035;-22
2023/09/04 03:46:55;;;;;;;0.77;0.77;;;;;;;;;;4994912;28;20042;-22
2023/09/04 03:49:21;;;;;;;0.90;0.90;;;;;;;;;;4995211;28;20022;-22
2023/09/04 03:51:48;;;;;;;1.15;0.80;;;;;;;;;;4994909;28;20100;-21
2023/09/04 03:54:14;;;;;;;0.85;0.85;;;;;;;;;;4995206;28;20030;-23
2023/09/04 03:56:40;;;;;;;0.80;0.80;;;;;;;;;;4994857;28;20114;-22
2023/09/04 03:59:06;;;;;;;0.90;0.90;;;;;;;;;;4994863;28;20133;-22
2023/09/04 04:01:33;;;;;;;0.90;0.90;;;;;;;;;;4995343;28;20058;-21
2023/09/04 04:04:02;;;;;;;1.08;1.00;;;;;;;;;;4994440;28;20045;-21
2023/09/04 04:06:28;;;;;;;0.90;0.90;;;;;;;;;;4995081;28;20088;-22
2023/09/04 04:08:54;;;;;;;0.70;0.70;;;;;;;;;;4994754;28;20022;-21
2023/09/04 04:11:21;;;;;;;0.80;0.80;;;;;;;;;;4994868;28;20035;-22
2023/09/04 04:13:47;;;;;;;0.85;0.85;;;;;;;;;;4994553;28;20023;-22
2023/09/04 04:16:13;;;;;;;0.90;0.90;;;;;;;;;;4993599;28;20039;-22
2023/09/04 04:18:40;;;;;;;0.82;0.82;;;;;;;;;;4995316;28;20160;-23
2023/09/04 04:21:06;;;;;;;1.38;0.82;;;;;;;;;;4998042;28;20057;-22
2023/09/04 04:23:35;;;;;;;0.80;0.80;;;;;;;;;;4997892;28;20069;-22
2023/09/04 04:26:01;;;;;;;1.63;1.02;;;;;;;;;;4998320;28;20022;-21
2023/09/04 04:28:27;;;;;;;0.68;0.68;;;;;;;;;;4998160;28;20026;-22
2023/09/04 04:30:53;;;;;;;1.10;1.05;;;;;;;;;;4997966;28;20022;-21
2023/09/04 04:33:21;;;;;;;1.27;1.10;;;;;;;;;;4996759;28;20026;-22
2023/09/04 04:35:53;;;;;;;0.70;0.70;;;;;;;;;;4996897;28;20450;-22
2023/09/04 04:38:19;;;;;;;0.80;0.80;;;;;;;;;;4997110;28;20031;-22
2023/09/04 04:40:45;;;;;;;1.02;1.02;;;;;;;;;;4997682;28;20110;-22
2023/09/04 04:43:11;;;;;;;1.17;0.98;;;;;;;;;;4996531;28;20058;-22
2023/09/04 04:45:37;;;;;;;1.00;1.00;;;;;;;;;;4996591;28;20023;-22
2023/09/04 04:48:03;;;;;;;3.15;1.05;;;;;;;;;;4997819;28;20030;-21
2023/09/04 04:50:30;;;;;;;1.00;0.93;;;;;;;;;;4997612;28;20031;-21
2023/09/04 04:52:56;;;;;;;1.25;1.05;;;;;;;;;;4996472;28;20458;-22
2023/09/04 04:55:22;;;;;;;0.80;0.80;;;;;;;;;;4996530;28;20041;-21
2023/09/04 04:57:49;;;;;;;0.90;0.90;;;;;;;;;;4997774;28;20453;-22
2023/09/04 05:00:15;;;;;;;1.25;1.20;;;;;;;;;;4997653;28;20026;-22
2023/09/04 05:02:41;;;;;;;1.17;0.80;;;;;;;;;;4997420;28;20041;-21
2023/09/04 05:05:08;;;;;;;1.45;0.85;;;;;;;;;;4997291;28;20046;-22
2023/09/04 05:07:34;;;;;;;7.40;1.55;;;;;;;;;;4997665;28;20022;-22
2023/09/04 05:10:00;;;;;;;1.15;1.02;;;;;;;;;;4997296;28;20114;-22
2023/09/04 05:12:27;;;;;;;1.10;1.00;;;;;;;;;;4997352;28;20495;-21
2023/09/04 05:14:53;;;;;;;3.53;0.70;;;;;;;;;;4997209;28;20026;-22
2023/09/04 05:17:19;;;;;;;2.28;0.90;;;;;;;;;;4997029;28;20125;-21
2023/09/04 05:19:46;;;;;;;1.00;1.00;;;;;;;;;;4997111;28;20026;-22
2023/09/04 05:22:12;;;;;;;1.27;0.98;;;;;;;;;;4980065;28;20061;-22
2023/09/04 05:24:38;;;;;;;1.60;0.90;;;;;;;;;;4996950;28;20030;-22
2023/09/04 05:27:04;;;;;;;1.70;0.75;;;;;;;;;;4997032;28;20327;-22
2023/09/04 05:29:30;;;;;;;1.10;0.90;;;;;;;;;;4979920;28;20516;-22
2023/09/04 05:31:57;;;;;;;1.85;1.00;;;;;;;;;;4995081;28;20357;-21
2023/09/04 05:34:24;;;;;;;1.00;0.73;;;;;;;;;;4997454;28;20106;-22
2023/09/04 05:36:50;;;;;;;1.40;0.95;;;;;;;;;;4996945;28;20026;-22
2023/09/04 05:39:16;;;;;;;1.02;0.90;;;;;;;;;;4996584;28;20157;-21
2023/09/04 05:41:43;;;;;;;0.80;0.80;;;;;;;;;;4995564;28;20037;-24
2023/09/04 05:44:09;;;;;;;0.80;0.80;;;;;;;;;;4996286;28;20026;-21
2023/09/04 05:46:35;;;;;;;2.65;0.90;;;;;;;;;;4996465;28;20450;-23
2023/09/04 05:49:01;;;;;;;3.78;0.93;;;;;;;;;;4996369;28;20050;-22
2023/09/04 05:51:27;;;;;;;0.80;0.80;;;;;;;;;;4996923;28;20113;-22
2023/09/04 05:53:53;;;;;;;0.85;0.85;;;;;;;;;;4996164;28;20023;-23
2023/09/04 05:56:19;;;;;;;3.38;0.90;;;;;;;;;;4996463;28;20046;-21
2023/09/04 05:58:46;;;;;;;0.80;0.80;;;;;;;;;;4995232;28;20442;-23
2023/09/04 06:03:49;;;;;;;2.70;0.98;;;;;;;;;;5180625;22;20136;-29
2023/09/04 06:06:15;;;;;;;3.20;0.90;;;;;;;;;;5036890;28;20021;-30
2023/09/04 06:08:41;;;;;;;2.80;1.02;;;;;;;;;;5035992;28;20092;-35
2023/09/04 06:11:08;;;;;;;7.70;1.02;;;;;;;;;;5018088;28;20026;-29
2023/09/04 06:13:34;;;;;;;7.78;1.35;;;;;;;;;;5035464;28;20033;-32
2023/09/04 06:16:01;;;;;;;5.00;1.73;;;;;;;;;;5035668;28;20041;-29
2023/09/04 06:18:30;;;;;;;1.33;0.90;;;;;;;;;;5035216;28;20036;-30
2023/09/04 06:20:57;;;;;;;1.70;1.50;;;;;;;;;;5035524;28;20037;-31
2023/09/04 06:23:23;;;;;;;6.00;0.85;;;;;;;;;;5035130;28;20028;-30
2023/09/04 06:25:49;;;;;;;4.07;1.40;;;;;;;;;;5035419;28;20021;-29
2023/09/04 06:28:16;;;;;;;3.72;1.00;;;;;;;;;;5035145;28;20029;-31
2023/09/04 06:30:43;;;;;;;1.73;1.20;;;;;;;;;;5035302;28;20025;-32
2023/09/04 06:33:09;;;;;;;5.88;1.88;;;;;;;;;;5035022;28;20055;-29
2023/09/04 06:35:35;;;;;;;2.25;1.13;;;;;;;;;;5017494;28;20467;-31
2023/09/04 06:38:01;;;;;;;5.13;1.08;;;;;;;;;;5034962;28;20075;-28
2023/09/04 06:40:27;;;;;;;5.03;1.10;;;;;;;;;;5035032;28;20109;-32
2023/09/04 06:42:53;;;;;;;2.35;0.95;;;;;;;;;;5034929;28;20021;-31
2023/09/04 06:45:20;;;;;;;5.90;1.20;;;;;;;;;;5035020;28;20025;-29
2023/09/04 06:47:46;;;;;;;10.80;1.38;;;;;;;;;;5035503;28;20037;-31
2023/09/04 06:50:15;;;;;;;5.00;1.35;;;;;;;;;;5035497;28;20352;-29
2023/09/04 06:52:42;;;;;;;10.63;3.00;;;;;;;;;;5034826;28;20078;-33
2023/09/04 06:55:09;;;;;;;5.65;1.50;;;;;;;;;;5034912;28;20022;-33
2023/09/04 06:57:35;;;;;;;4.75;1.25;;;;;;;;;;5035050;28;20043;-30
2023/09/04 07:00:07;;;;;;;20.15;3.03;;;;;;;;;;5035062;28;20031;-32
2023/09/04 07:02:33;;;;;;;10.15;1.92;;;;;;;;;;5034616;28;20041;-29
2023/09/04 07:05:00;;;;;;;14.48;1.98;;;;;;;;;;5034994;28;20439;-30
2023/09/04 07:07:26;;;;;;;5.10;1.27;;;;;;;;;;5035657;28;20068;-28
2023/09/04 07:09:52;;;;;;;9.40;1.40;;;;;;;;;;5035071;28;20341;-31
2023/09/04 07:12:19;;;;;;;2.40;1.40;;;;;;;;;;5034709;28;20040;-27
2023/09/04 07:14:45;;;;;;;9.90;1.23;;;;;;;;;;5034907;28;20056;-31
2023/09/04 07:17:11;;;;;;;4.43;1.40;;;;;;;;;;5017974;28;20417;-30
2023/09/04 07:19:38;;;;;;;5.60;1.30;;;;;;;;;;5034775;28;20030;-31
2023/09/04 07:22:04;;;;;;;3.88;1.00;;;;;;;;;;5034278;28;20068;-31
2023/09/04 07:24:31;;;;;;;8.75;1.60;;;;;;;;;;5034311;28;20021;-28
2023/09/04 07:26:57;;;;;;;2.20;1.13;;;;;;;;;;5034829;28;20051;-31
2023/09/04 07:29:23;;;;;;;4.72;1.00;;;;;;;;;;5034607;28;20029;-28
2023/09/04 07:31:49;;;;;;;3.63;0.80;;;;;;;;;;5034095;28;20380;-28
2023/09/04 07:34:16;;;;;;;8.45;1.58;;;;;;;;;;5034772;28;20049;-30
2023/09/04 07:36:42;;;;;;;2.63;1.13;;;;;;;;;;5034483;28;20334;-29
2023/09/04 07:39:08;;;;;;;1.40;0.95;;;;;;;;;;5034222;28;20025;-31
2023/09/04 07:41:34;;;;;;;4.65;1.30;;;;;;;;;;5034386;28;20021;-28
2023/09/04 07:44:00;;;;;;;7.07;1.20;;;;;;;;;;5033950;28;20029;-33
2023/09/04 07:46:26;;;;;;;3.97;1.17;;;;;;;;;;5034270;28;20029;-27
2023/09/04 07:48:53;;;;;;;3.65;1.30;;;;;;;;;;5034316;28;20021;-31
2023/09/04 07:51:19;;;;;;;3.35;0.82;;;;;;;;;;5017250;28;20376;-31
2023/09/04 07:53:45;;;;;;;1.10;0.93;;;;;;;;;;5035015;28;20037;-28
2023/09/04 07:56:11;;;;;;;3.45;1.30;;;;;;;;;;5038259;28;20030;-30
2023/09/04 07:58:40;;;;;;;3.85;1.17;;;;;;;;;;5038177;28;20033;-29
2023/09/04 08:01:12;;;;;;;0.95;0.95;;;;;;;;;;5038265;28;20036;-30
2023/09/04 08:03:38;;;;;;;1.80;1.20;;;;;;;;;;5037665;28;20134;-28
2023/09/04 08:06:04;;;;;;;3.85;0.98;;;;;;;;;;5038032;28;20156;-29
2023/09/04 08:08:30;;;;;;;4.13;1.13;;;;;;;;;;5037968;28;20032;-31
2023/09/04 08:10:56;;;;;;;1.48;1.02;;;;;;;;;;5037765;28;20033;-27
2023/09/04 08:13:23;;;;;;;3.90;1.10;;;;;;;;;;5038022;28;20025;-30
2023/09/04 08:15:49;;;;;;;5.28;1.63;;;;;;;;;;5037771;28;20029;-32
2023/09/04 08:18:15;;;;;;;1.92;1.25;;;;;;;;;;5037784;28;20037;-31
2023/09/04 08:20:42;;;;;;;3.88;1.25;;;;;;;;;;5037700;28;20029;-31
2023/09/04 08:23:09;;;;;;;2.72;1.27;;;;;;;;;;5037424;28;20026;-30
2023/09/04 08:25:36;;;;;;;5.32;1.65;;;;;;;;;;5037509;28;20089;-27
2023/09/04 08:28:03;;;;;;;9.60;1.50;;;;;;;;;;5037611;28;20025;-31
2023/09/04 08:30:29;;;;;;;5.50;1.30;;;;;;;;;;5037417;28;20025;-29
2023/09/04 08:32:55;;;;;;;4.40;1.20;;;;;;;;;;5037285;28;20135;-29
2023/09/04 08:35:21;;;;;;;3.10;1.40;;;;;;;;;;5037524;28;20106;-31
2023/09/04 08:37:48;;;;;;;2.63;1.08;;;;;;;;;;5038181;28;20433;-31
2023/09/04 08:40:14;;;;;;;2.67;1.42;;;;;;;;;;5037292;28;20030;-31
2023/09/04 08:42:40;;;;;;;4.97;1.02;;;;;;;;;;5019694;28;20029;-31
2023/09/04 08:45:08;;;;;;;3.92;1.08;;;;;;;;;;5037150;28;20029;-28
2023/09/04 08:47:40;;;;;;;3.05;1.30;;;;;;;;;;5037385;28;20037;-33
2023/09/04 08:50:07;;;;;;;6.10;2.88;;;;;;;;;;5037424;28;20127;-34
2023/09/04 08:52:35;;;;;;;2.70;1.35;;;;;;;;;;5019548;28;20111;-29
2023/09/04 08:55:02;;;;;;;2.33;1.20;;;;;;;;;;5037471;28;20029;-36
2023/09/04 08:57:30;;;;;;;4.28;1.40;;;;;;;;;;5037209;28;20021;-30
2023/09/04 08:59:56;;;;;;;1.25;1.08;;;;;;;;;;5019987;28;20084;-30
2023/09/04 09:02:22;;;;;;;2.42;1.20;;;;;;;;;;5036541;28;20032;-30
2023/09/04 09:04:49;;;;;;;2.17;1.05;;;;;;;;;;5018649;28;20021;-31
2023/09/04 09:07:15;;;;;;;1.40;1.17;;;;;;;;;;5036366;28;20030;-30
2023/09/04 09:09:44;;;;;;;5.57;1.20;;;;;;;;;;5037261;28;20029;-30
2023/09/04 09:12:10;;;;;;;2.03;1.23;;;;;;;;;;5019200;28;20533;-32
2023/09/04 09:14:36;;;;;;;2.83;1.17;;;;;;;;;;5036613;28;20083;-31
2023/09/04 09:17:04;;;;;;;2.30;1.10;;;;;;;;;;5036822;28;20441;-32
2023/09/04 09:19:34;;;;;;;2.80;1.00;;;;;;;;;;5036421;28;20037;-30
2023/09/04 09:22:10;;;;;;;4.53;1.90;;;;;;;;;;5036611;28;20456;-28
2023/09/04 09:24:49;;;;;;;2.25;1.15;;;;;;;;;;5036539;28;20033;-30
2023/09/04 09:27:16;;;;;;;2.28;1.23;;;;;;;;;;5019201;28;20051;-28
2023/09/04 09:29:43;;;;;;;17.52;3.00;;;;;;;;;;5036553;28;20028;-31
2023/09/04 09:32:09;;;;;;;4.22;1.77;;;;;;;;;;5036311;28;20029;-29
2023/09/04 09:34:36;;;;;;;5.88;1.65;;;;;;;;;;5036369;28;20049;-30
2023/09/04 09:37:02;;;;;;;6.78;1.10;;;;;;;;;;5018809;28;20473;-30
2023/09/04 09:39:29;;;;;;;5.18;1.45;;;;;;;;;;5036340;28;20360;-30
2023/09/04 09:41:55;;;;;;;10.15;1.55;;;;;;;;;;5036346;28;20067;-31
2023/09/04 09:44:21;;;;;;;5.47;1.27;;;;;;;;;;5036129;28;20030;-26
2023/09/04 09:46:52;;;;;;;11.10;1.48;;;;;;;;;;5036467;28;20032;-29
2023/09/04 09:49:18;;;;;;;7.65;1.90;;;;;;;;;;5036464;28;20022;-31
2023/09/04 09:51:47;;;;;;;4.72;1.33;;;;;;;;;;5035976;28;20045;-31
2023/09/04 09:54:13;;;;;;;5.90;2.03;;;;;;;;;;5036364;28;20367;-28
2023/09/04 09:56:40;;;;;;;5.53;1.30;;;;;;;;;;5018542;28;20472;-31
2023/09/04 09:59:07;;;;;;;8.48;2.75;;;;;;;;;;5036011;28;20017;-29
2023/09/04 10:01:33;;;;;;;12.85;1.92;;;;;;;;;;5018429;28;20053;-32
2023/09/04 10:04:00;;;;;;;11.15;1.80;;;;;;;;;;5035396;28;20075;-31
2023/09/04 10:06:34;;;;;;;4.30;2.55;;;;;;;;;;5035666;28;20041;-30
2023/09/04 10:09:00;;;;;;;7.85;2.17;;;;;;;;;;5018373;28;20029;-31
2023/09/04 10:11:26;;;;;;;2.45;1.40;;;;;;;;;;5035685;28;20021;-32
2023/09/04 10:13:52;;;;;;;13.45;1.67;;;;;;;;;;5035614;28;20084;-29
2023/09/04 10:16:28;;;;;;;13.85;1.80;;;;;;;;;;5035690;28;20029;-32
2023/09/04 10:18:56;;;;;;;3.72;1.42;;;;;;;;;;5035780;28;20033;-26
2023/09/04 10:21:22;;;;;;;10.27;2.10;;;;;;;;;;5035451;28;20092;-27
2023/09/04 10:23:50;;;;;;;6.40;1.58;;;;;;;;;;5035644;28;20025;-30
2023/09/04 10:26:21;;;;;;;3.70;1.10;;;;;;;;;;5035558;28;20105;-30
2023/09/04 10:28:55;;;;;;;0.93;0.77;;;;;;;;;;5035325;28;20032;-30
2023/09/04 10:31:25;;;;;;;2.75;1.33;;;;;;;;;;5035887;28;20033;-30
2023/09/04 10:33:52;;;;;;;5.18;1.58;;;;;;;;;;5035213;28;20024;-30
2023/09/04 10:36:20;;;;;;;3.17;1.38;;;;;;;;;;5035154;28;20063;-28
2023/09/04 10:38:46;;;;;;;2.05;1.40;;;;;;;;;;5035777;28;20025;-30
2023/09/04 10:41:14;;;;;;;6.13;1.30;;;;;;;;;;5035369;28;20033;-28
2023/09/04 10:43:43;;;;;;;4.90;1.23;;;;;;;;;;5017544;28;20029;-30
2023/09/04 10:46:10;;;;;;;12.45;1.67;;;;;;;;;;5017654;28;20104;-32
2023/09/04 10:48:42;;;;;;;5.25;1.60;;;;;;;;;;5035255;28;20032;-29
2023/09/04 10:51:37;;;;;;;4.53;1.92;;;;;;;;;;5035390;28;20448;-33
2023/09/04 10:54:12;;;;;;;6.15;1.70;;;;;;;;;;5014471;28;20049;-29
2023/09/04 10:56:58;;;;;;;6.90;1.95;;;;;;;;;;5035269;28;20387;-29
2023/09/04 10:59:24;;;;;;;8.23;2.08;;;;;;;;;;5035701;28;20025;-29
2023/09/04 11:01:51;;;;;;;5.93;1.77;;;;;;;;;;5035752;28;20021;-26
2023/09/04 11:04:35;;;;;;;6.30;2.30;;;;;;;;;;5034664;28;20057;-31
2023/09/04 11:07:20;;;;;;;10.57;1.42;;;;;;;;;;5034675;28;20025;-31
2023/09/04 11:09:53;;;;;;;8.18;1.40;;;;;;;;;;5034566;28;20040;-28
2023/09/04 11:12:20;;;;;;;5.43;1.50;;;;;;;;;;5034973;28;20013;-31
2023/09/04 11:14:47;;;;;;;4.53;1.90;;;;;;;;;;5017642;28;20034;-27
2023/09/04 11:17:16;;;;;;;3.00;1.15;;;;;;;;;;5034441;28;20026;-31
2023/09/04 11:19:46;;;;;;;5.78;1.50;;;;;;;;;;5034490;28;20452;-29
2023/09/04 11:22:24;;;;;;;7.65;1.48;;;;;;;;;;5034630;28;20350;-27
2023/09/04 11:24:53;;;;;;;4.68;1.40;;;;;;;;;;5034375;28;20112;-31
2023/09/04 11:27:20;;;;;;;2.58;1.95;;;;;;;;;;5017395;28;20356;-29
2023/09/04 11:29:47;;;;;;;7.95;2.00;;;;;;;;;;5033781;28;20453;-30
2023/09/04 11:32:13;;;;;;;4.60;1.35;;;;;;;;;;5034474;28;20463;-28
2023/09/04 11:34:42;;;;;;;3.63;1.77;;;;;;;;;;5034712;28;20131;-29
2023/09/04 11:37:08;;;;;;;3.72;1.23;;;;;;;;;;5017010;28;20040;-30
2023/09/04 11:39:34;;;;;;;4.70;1.75;;;;;;;;;;5034410;28;20030;-30
2023/09/04 11:42:01;;;;;;;7.10;1.58;;;;;;;;;;5034372;28;20029;-30
2023/09/04 11:44:30;;;;;;;6.25;1.65;;;;;;;;;;5034277;28;20049;-30
2023/09/04 11:46:57;;;;;;;6.78;1.27;;;;;;;;;;5034463;28;20347;-31
2023/09/04 11:49:23;;;;;;;3.25;1.50;;;;;;;;;;5034660;28;20022;-29
2023/09/04 11:51:50;;;;;;;5.95;1.73;;;;;;;;;;5034725;28;20021;-31
2023/09/04 11:57:17;;;;;;;;;;;;;;;;;;4955185;29;20063;-30
2023/09/04 11:59:43;;;;;;;5.80;2.00;;;;;;;;;;5017626;28;19905;-30
2023/09/04 12:02:09;;;;;;;2.88;1.85;;;;;;;;;;5034126;28;20171;-29
2023/09/04 12:04:36;;;;;;;9.57;2.72;;;;;;;;;;5034599;28;20042;-28
2023/09/04 12:07:03;;;;;;;5.78;2.00;;;;;;;;;;5034029;28;20495;-30
2023/09/04 12:09:29;;;;;;;5.53;1.83;;;;;;;;;;5034058;28;20068;-31
2023/09/04 12:11:55;;;;;;;7.22;1.65;;;;;;;;;;5034009;28;20051;-30
2023/09/04 12:14:21;;;;;;;9.57;2.00;;;;;;;;;;5016637;28;20121;-31
2023/09/04 12:16:48;;;;;;;5.63;1.80;;;;;;;;;;5034208;28;20040;-30
2023/09/04 12:19:18;;;;;;;8.20;1.85;;;;;;;;;;5034085;28;20054;-38
2023/09/04 12:21:44;;;;;;;7.70;2.05;;;;;;;;;;5034346;28;20026;-31
2023/09/04 12:24:16;;;;;;;6.32;1.48;;;;;;;;;;5016751;28;20025;-30
2023/09/04 12:26:43;;;;;;;7.82;1.58;;;;;;;;;;5034016;28;20026;-28
2023/09/04 12:29:12;;;;;;;5.15;2.10;;;;;;;;;;5016528;28;20030;-29
2023/09/04 12:31:38;;;;;;;5.13;1.58;;;;;;;;;;5033942;28;20049;-30
2023/09/04 12:34:05;;;;;;;2.83;1.50;;;;;;;;;;5033881;28;20415;-29
2023/09/04 12:36:34;;;;;;;4.95;2.08;;;;;;;;;;5034513;28;20352;-33
2023/09/04 12:39:01;;;;;;;5.28;1.85;;;;;;;;;;5033978;28;20484;-26
2023/09/04 12:41:27;;;;;;;7.80;1.95;;;;;;;;;;5037780;28;20029;-27
2023/09/04 12:43:53;;;;;;;3.03;1.70;;;;;;;;;;5037577;28;20037;-29
2023/09/04 12:46:20;;;;;;;7.43;2.00;;;;;;;;;;5037499;28;20097;-30
2023/09/04 12:48:46;;;;;;;8.68;2.15;;;;;;;;;;5037215;28;20096;-28
2023/09/04 12:51:12;;;;;;;4.55;1.42;;;;;;;;;;5020151;28;20044;-30
2023/09/04 12:53:40;;;;;;;7.30;2.15;;;;;;;;;;5037118;28;20030;-28
2023/09/04 12:56:06;;;;;;;2.35;1.80;;;;;;;;;;5037168;28;20034;-31
2023/09/04 12:58:33;;;;;;;4.65;1.77;;;;;;;;;;5037606;28;20112;-32
2023/09/04 13:00:59;;;;;;;6.60;2.05;;;;;;;;;;5037313;28;20029;-30
2023/09/04 13:03:25;;;;;;;6.15;2.30;;;;;;;;;;5036523;28;20049;-31
2023/09/04 13:05:52;;;;;;;4.88;2.58;;;;;;;;;;5036865;28;20022;-26
2023/09/04 13:08:18;;;;;;;4.30;1.35;;;;;;;;;;5037079;28;20032;-32
2023/09/04 13:10:44;;;;;;;3.35;2.10;;;;;;;;;;5037407;28;20036;-31
2023/09/04 13:13:11;;;;;;;5.03;1.98;;;;;;;;;;5036873;28;20403;-27
2023/09/04 13:15:37;;;;;;;4.50;2.05;;;;;;;;;;5036534;28;20100;-31
2023/09/04 13:18:04;;;;;;;4.22;1.17;;;;;;;;;;5037062;28;20100;-30
2023/09/04 13:20:30;;;;;;;3.42;1.65;;;;;;;;;;5036381;28;20356;-31
2023/09/04 13:22:56;;;;;;;1.95;1.70;;;;;;;;;;5036508;28;20452;-28
2023/09/04 13:25:22;;;;;;;10.77;2.05;;;;;;;;;;5036746;28;20029;-30
2023/09/04 13:27:48;;;;;;;3.00;1.50;;;;;;;;;;5019039;28;20022;-30
2023/09/04 13:30:15;;;;;;;2.65;1.75;;;;;;;;;;5037008;28;20033;-30
2023/09/04 13:32:41;;;;;;;4.38;1.90;;;;;;;;;;5036314;28;20109;-31
2023/09/04 13:35:08;;;;;;;2.22;1.50;;;;;;;;;;5036314;28;20152;-32
2023/09/04 13:37:34;;;;;;;3.95;1.60;;;;;;;;;;5036335;28;20021;-27
2023/09/04 13:40:03;;;;;;;3.15;2.80;;;;;;;;;;5036198;28;20063;-28
2023/09/04 13:42:29;;;;;;;4.97;1.52;;;;;;;;;;5036151;28;20087;-30
2023/09/04 13:44:57;;;;;;;6.90;2.00;;;;;;;;;;5036111;28;20374;-31
2023/09/04 13:47:25;;;;;;;2.22;1.50;;;;;;;;;;5036038;28;20026;-28
2023/09/04 13:49:52;;;;;;;7.22;2.53;;;;;;;;;;5035994;28;20091;-29
2023/09/04 13:52:18;;;;;;;11.35;2.25;;;;;;;;;;5035344;28;20050;-30
2023/09/04 13:54:44;;;;;;;4.03;2.30;;;;;;;;;;5035939;28;20029;-30
2023/09/04 13:57:11;;;;;;;5.22;1.90;;;;;;;;;;5036100;28;20021;-33
2023/09/04 13:59:37;;;;;;;4.82;1.77;;;;;;;;;;5035906;28;20396;-30
2023/09/04 14:02:03;;;;;;;9.40;1.60;;;;;;;;;;5035769;28;20070;-31
2023/09/04 14:04:30;;;;;;;11.93;2.50;;;;;;;;;;5035577;28;20038;-31
2023/09/04 14:06:56;;;;;;;5.63;2.47;;;;;;;;;;5035924;28;20022;-31
2023/09/04 14:09:23;;;;;;;6.25;1.92;;;;;;;;;;5035678;28;20049;-29
2023/09/04 14:11:49;;;;;;;3.08;2.22;;;;;;;;;;5035594;28;20032;-29
2023/09/04 14:14:17;;;;;;;5.65;1.67;;;;;;;;;;5035784;28;20036;-31
2023/09/04 14:16:43;;;;;;;3.85;2.05;;;;;;;;;;5018047;28;20120;-31
2023/09/04 14:19:10;;;;;;;7.18;1.92;;;;;;;;;;5035511;28;20338;-29
2023/09/04 14:21:36;;;;;;;3.47;2.22;;;;;;;;;;5035363;28;20061;-31
2023/09/04 14:24:02;;;;;;;3.88;1.67;;;;;;;;;;5035567;28;20030;-33
2023/09/04 14:26:28;;;;;;;3.38;2.33;;;;;;;;;;5035346;28;20029;-30
2023/09/04 14:28:55;;;;;;;6.28;2.00;;;;;;;;;;5035319;28;20029;-31
2023/09/04 14:31:22;;;;;;;4.15;2.70;;;;;;;;;;5018019;28;20415;-31
2023/09/04 14:33:49;;;;;;;5.38;1.92;;;;;;;;;;5035527;28;20109;-29
2023/09/04 14:36:15;;;;;;;11.13;2.60;;;;;;;;;;5017734;28;20041;-29
2023/09/04 14:38:41;;;;;;;7.53;1.60;;;;;;;;;;5035093;28;20171;-31
2023/09/04 14:41:19;;;;;;;5.95;2.00;;;;;;;;;;5035299;28;20032;-31
2023/09/04 14:43:48;;;;;;;9.13;1.70;;;;;;;;;;5035224;28;20053;-31
2023/09/04 14:46:19;;;;;;;6.88;2.17;;;;;;;;;;5035377;28;20357;-26
2023/09/04 14:48:45;;;;;;;2.25;1.70;;;;;;;;;;5034999;28;20029;-29